sensor_id;sensor_type;location;lat;lon;timestamp;pressure;altitude;pressure_sealevel;temperature;humidity
39613;BME280;25303;48.896;13.342;2022-10-22T00:00:16;92643.34;;;12.68;75.16
39613;BME280;25303;48.896;13.342;2022-10-22T00:02:59;92636.41;;;12.69;74.88
39613;BME280;25303;48.896;13.342;2022-10-22T00:05:42;92631.06;;;12.70;74.85
39613;BME280;25303;48.896;13.342;2022-10-22T00:08:25;92630.91;;;12.72;74.85
39613;BME280;25303;48.896;13.342;2022-10-22T00:11:09;92633.47;;;12.72;74.87
39613;BME280;25303;48.896;13.342;2022-10-22T00:13:53;92633.28;;;12.73;74.87
39613;BME280;25303;48.896;13.342;2022-10-22T00:16:38;92625.34;;;12.75;74.70
39613;BME280;25303;48.896;13.342;2022-10-22T00:19:20;92629.56;;;12.76;74.68
39613;BME280;25303;48.896;13.342;2022-10-22T00:22:03;92629.38;;;12.77;74.69
39613;BME280;25303;48.896;13.342;2022-10-22T00:24:47;92629.19;;;12.79;74.62
39613;BME280;25303;48.896;13.342;2022-10-22T00:27:29;92628.22;;;12.80;74.43
39613;BME280;25303;48.896;13.342;2022-10-22T00:30:12;92629.03;;;12.81;74.29
39613;BME280;25303;48.896;13.342;2022-10-22T00:32:57;92634.22;;;12.81;74.30
39613;BME280;25303;48.896;13.342;2022-10-22T00:35:40;92627.25;;;12.81;74.32
39613;BME280;25303;48.896;13.342;2022-10-22T00:38:23;92621.28;;;12.81;74.44
39613;BME280;25303;48.896;13.342;2022-10-22T00:41:06;92617.72;;;12.82;74.39
39613;BME280;25303;48.896;13.342;2022-10-22T00:43:54;92627.25;;;12.81;74.44
39613;BME280;25303;48.896;13.342;2022-10-22T00:46:37;92628.06;;;12.82;74.26
39613;BME280;25303;48.896;13.342;2022-10-22T00:49:21;92630.66;;;12.82;74.19
39613;BME280;25303;48.896;13.342;2022-10-22T00:52:04;92630.66;;;12.82;74.18
39613;BME280;25303;48.896;13.342;2022-10-22T00:54:48;92613.69;;;12.79;74.33
39613;BME280;25303;48.896;13.342;2022-10-22T00:57:32;92615.50;;;12.79;74.29
39613;BME280;25303;48.896;13.342;2022-10-22T01:00:16;92620.47;;;12.80;74.23
39613;BME280;25303;48.896;13.342;2022-10-22T01:03:00;92623.06;;;12.80;74.35
39613;BME280;25303;48.896;13.342;2022-10-22T01:05:50;92621.28;;;12.81;74.26
39613;BME280;25303;48.896;13.342;2022-10-22T01:08:42;92616.91;;;12.81;74.27
39613;BME280;25303;48.896;13.342;2022-10-22T01:11:34;92613.34;;;12.82;74.26
39613;BME280;25303;48.896;13.342;2022-10-22T01:14:26;92610.59;;;12.84;74.32
39613;BME280;25303;48.896;13.342;2022-10-22T01:17:17;92608.00;;;12.84;74.17
39613;BME280;25303;48.896;13.342;2022-10-22T01:20:14;92595.91;;;12.84;74.18
39613;BME280;25303;48.896;13.342;2022-10-22T01:23:14;92575.41;;;12.83;74.28
39613;BME280;25303;48.896;13.342;2022-10-22T01:26:04;92572.81;;;12.83;74.39
39613;BME280;25303;48.896;13.342;2022-10-22T01:28:55;92578.59;;;12.85;74.42
39613;BME280;25303;48.896;13.342;2022-10-22T01:31:42;92576.03;;;12.85;74.33
39613;BME280;25303;48.896;13.342;2022-10-22T01:34:28;92567.50;;;12.84;74.25
39613;BME280;25303;48.896;13.342;2022-10-22T01:37:13;92573.44;;;12.85;74.39
39613;BME280;25303;48.896;13.342;2022-10-22T01:39:58;92566.50;;;12.85;74.32
39613;BME280;25303;48.896;13.342;2022-10-22T01:42:56;92569.09;;;12.85;74.53
39613;BME280;25303;48.896;13.342;2022-10-22T01:45:42;92570.06;;;12.84;74.56
39613;BME280;25303;48.896;13.342;2022-10-22T01:48:34;92567.50;;;12.84;74.32
39613;BME280;25303;48.896;13.342;2022-10-22T01:51:24;92566.50;;;12.85;75.05
39613;BME280;25303;48.896;13.342;2022-10-22T01:54:21;92561.34;;;12.85;74.63
39613;BME280;25303;48.896;13.342;2022-10-22T01:57:12;92563.09;;;12.85;74.51
39613;BME280;25303;48.896;13.342;2022-10-22T02:00:01;92556.81;;;12.87;74.48
39613;BME280;25303;48.896;13.342;2022-10-22T02:02:53;92553.25;;;12.88;74.36
39613;BME280;25303;48.896;13.342;2022-10-22T02:05:44;92547.09;;;12.89;74.54
39613;BME280;25303;48.896;13.342;2022-10-22T02:08:31;92552.06;;;12.91;74.53
39613;BME280;25303;48.896;13.342;2022-10-22T02:11:15;92551.72;;;12.94;74.49
39613;BME280;25303;48.896;13.342;2022-10-22T02:14:00;92555.91;;;12.95;74.69
39613;BME280;25303;48.896;13.342;2022-10-22T02:16:46;92570.06;;;12.99;74.55
39613;BME280;25303;48.896;13.342;2022-10-22T02:19:37;92551.81;;;13.01;74.68
39613;BME280;25303;48.896;13.342;2022-10-22T02:22:22;92538.91;;;13.01;74.72
39613;BME280;25303;48.896;13.342;2022-10-22T02:25:08;92531.94;;;13.01;74.52
39613;BME280;25303;48.896;13.342;2022-10-22T02:27:58;92536.31;;;13.01;74.43
39613;BME280;25303;48.896;13.342;2022-10-22T02:30:47;92541.47;;;13.01;74.58
39613;BME280;25303;48.896;13.342;2022-10-22T02:33:37;92568.28;;;13.00;74.60
39613;BME280;25303;48.896;13.342;2022-10-22T02:36:25;92576.03;;;13.00;74.51
39613;BME280;25303;48.896;13.342;2022-10-22T02:39:09;92577.81;;;12.99;74.74
39613;BME280;25303;48.896;13.342;2022-10-22T02:41:52;92597.50;;;13.00;74.66
39613;BME280;25303;48.896;13.342;2022-10-22T02:44:36;92608.66;;;13.01;74.72
39613;BME280;25303;48.896;13.342;2022-10-22T02:47:19;92603.66;;;12.99;74.83
39613;BME280;25303;48.896;13.342;2022-10-22T02:50:02;92620.75;;;13.00;74.78
39613;BME280;25303;48.896;13.342;2022-10-22T02:52:52;92627.09;;;12.98;74.70
39613;BME280;25303;48.896;13.342;2022-10-22T02:55:35;92620.50;;;12.95;74.58
39613;BME280;25303;48.896;13.342;2022-10-22T02:58:18;92624.22;;;12.92;74.65
39613;BME280;25303;48.896;13.342;2022-10-22T03:01:01;92607.31;;;12.90;74.84
39613;BME280;25303;48.896;13.342;2022-10-22T03:03:44;92620.41;;;12.88;74.75
39613;BME280;25303;48.896;13.342;2022-10-22T03:06:27;92629.16;;;12.87;74.93
39613;BME280;25303;48.896;13.342;2022-10-22T03:09:11;92623.97;;;12.87;74.87
39613;BME280;25303;48.896;13.342;2022-10-22T03:11:54;92630.28;;;12.85;74.77
39613;BME280;25303;48.896;13.342;2022-10-22T03:14:37;92633.03;;;12.83;74.87
39613;BME280;25303;48.896;13.342;2022-10-22T03:17:20;92639.00;;;12.84;74.89
39613;BME280;25303;48.896;13.342;2022-10-22T03:20:03;92635.81;;;12.82;74.85
39613;BME280;25303;48.896;13.342;2022-10-22T03:22:46;92639.53;;;12.79;74.82
39613;BME280;25303;48.896;13.342;2022-10-22T03:25:31;92640.50;;;12.78;74.96
39613;BME280;25303;48.896;13.342;2022-10-22T03:28:16;92645.88;;;12.76;74.99
39613;BME280;25303;48.896;13.342;2022-10-22T03:30:59;92654.59;;;12.75;74.98
39613;BME280;25303;48.896;13.342;2022-10-22T03:33:42;92666.69;;;12.75;75.10
39613;BME280;25303;48.896;13.342;2022-10-22T03:36:25;92671.06;;;12.74;75.04
39613;BME280;25303;48.896;13.342;2022-10-22T03:39:09;92669.47;;;12.73;75.19
39613;BME280;25303;48.896;13.342;2022-10-22T03:41:55;92673.66;;;12.74;75.19
39613;BME280;25303;48.896;13.342;2022-10-22T03:44:39;92680.59;;;12.74;75.24
39613;BME280;25303;48.896;13.342;2022-10-22T03:47:22;92671.25;;;12.73;75.39
39613;BME280;25303;48.896;13.342;2022-10-22T03:50:07;92679.00;;;12.73;75.48
39613;BME280;25303;48.896;13.342;2022-10-22T03:52:50;92677.38;;;12.72;75.47
39613;BME280;25303;48.896;13.342;2022-10-22T03:55:33;92692.88;;;12.72;75.37
39613;BME280;25303;48.896;13.342;2022-10-22T03:58:18;92694.66;;;12.71;75.40
39613;BME280;25303;48.896;13.342;2022-10-22T04:01:03;92693.69;;;12.72;75.40
39613;BME280;25303;48.896;13.342;2022-10-22T04:03:46;92697.22;;;12.71;75.52
39613;BME280;25303;48.896;13.342;2022-10-22T04:06:29;92702.41;;;12.71;75.49
39613;BME280;25303;48.896;13.342;2022-10-22T04:09:12;92696.44;;;12.71;75.60
39613;BME280;25303;48.896;13.342;2022-10-22T04:11:55;92696.59;;;12.69;75.54
39613;BME280;25303;48.896;13.342;2022-10-22T04:14:39;92688.84;;;12.69;75.69
39613;BME280;25303;48.896;13.342;2022-10-22T04:17:22;92691.44;;;12.69;75.67
39613;BME280;25303;48.896;13.342;2022-10-22T04:20:06;92686.28;;;12.69;75.47
39613;BME280;25303;48.896;13.342;2022-10-22T04:22:49;92681.09;;;12.69;75.54
39613;BME280;25303;48.896;13.342;2022-10-22T04:25:32;92675.94;;;12.69;75.68
39613;BME280;25303;48.896;13.342;2022-10-22T04:28:15;92677.88;;;12.67;75.72
39613;BME280;25303;48.896;13.342;2022-10-22T04:30:59;92679.38;;;12.61;75.69
39613;BME280;25303;48.896;13.342;2022-10-22T04:33:42;92678.94;;;12.58;75.71
39613;BME280;25303;48.896;13.342;2022-10-22T04:36:26;92673.97;;;12.56;75.87
39613;BME280;25303;48.896;13.342;2022-10-22T04:39:09;92656.84;;;12.55;75.96
39613;BME280;25303;48.896;13.342;2022-10-22T04:41:52;92655.06;;;12.56;75.97
39613;BME280;25303;48.896;13.342;2022-10-22T04:44:35;92646.53;;;12.55;76.08
39613;BME280;25303;48.896;13.342;2022-10-22T04:47:19;92627.63;;;12.55;76.15
39613;BME280;25303;48.896;13.342;2022-10-22T04:50:03;92621.69;;;12.54;76.11
39613;BME280;25303;48.896;13.342;2022-10-22T04:52:46;92626.03;;;12.54;76.23
39613;BME280;25303;48.896;13.342;2022-10-22T04:55:29;92623.44;;;12.54;76.21
39613;BME280;25303;48.896;13.342;2022-10-22T04:58:17;92633.78;;;12.54;76.23
39613;BME280;25303;48.896;13.342;2022-10-22T05:00:59;92636.34;;;12.54;76.24
39613;BME280;25303;48.896;13.342;2022-10-22T05:03:44;92650.25;;;12.53;76.35
39613;BME280;25303;48.896;13.342;2022-10-22T05:06:29;92668.50;;;12.51;76.24
39613;BME280;25303;48.896;13.342;2022-10-22T05:09:13;92674.28;;;12.53;75.99
39613;BME280;25303;48.896;13.342;2022-10-22T05:11:56;92677.84;;;12.52;76.79
39613;BME280;25303;48.896;13.342;2022-10-22T05:14:39;92684.78;;;12.52;76.25
39613;BME280;25303;48.896;13.342;2022-10-22T05:17:25;92678.19;;;12.49;76.49
39613;BME280;25303;48.896;13.342;2022-10-22T05:20:10;92681.75;;;12.48;76.60
39613;BME280;25303;48.896;13.342;2022-10-22T05:22:53;92688.06;;;12.45;76.51
39613;BME280;25303;48.896;13.342;2022-10-22T05:25:36;92699.38;;;12.44;76.86
39613;BME280;25303;48.896;13.342;2022-10-22T05:28:19;92700.50;;;12.42;76.97
39613;BME280;25303;48.896;13.342;2022-10-22T05:31:03;92703.25;;;12.40;77.16
39613;BME280;25303;48.896;13.342;2022-10-22T05:33:46;92702.28;;;12.41;77.09
39613;BME280;25303;48.896;13.342;2022-10-22T05:36:30;92700.69;;;12.40;77.24
39613;BME280;25303;48.896;13.342;2022-10-22T05:39:13;92712.66;;;12.33;77.44
39613;BME280;25303;48.896;13.342;2022-10-22T05:41:56;92714.63;;;12.31;77.24
39613;BME280;25303;48.896;13.342;2022-10-22T05:44:40;92717.13;;;12.16;77.91
39613;BME280;25303;48.896;13.342;2022-10-22T05:47:23;92734.88;;;12.11;77.88
39613;BME280;25303;48.896;13.342;2022-10-22T05:50:06;92725.53;;;12.10;77.76
39613;BME280;25303;48.896;13.342;2022-10-22T05:52:51;92707.56;;;11.85;78.23
39613;BME280;25303;48.896;13.342;2022-10-22T05:55:34;92717.69;;;11.86;77.97
39613;BME280;25303;48.896;13.342;2022-10-22T05:58:19;92721.09;;;11.79;78.20
39613;BME280;25303;48.896;13.342;2022-10-22T06:01:02;92732.59;;;11.68;78.86
39613;BME280;25303;48.896;13.342;2022-10-22T06:03:46;92727.28;;;11.61;78.65
39613;BME280;25303;48.896;13.342;2022-10-22T06:06:32;92732.44;;;11.61;78.66
39613;BME280;25303;48.896;13.342;2022-10-22T06:09:19;92741.16;;;11.60;78.82
39613;BME280;25303;48.896;13.342;2022-10-22T06:12:04;92740.19;;;11.61;78.60
39613;BME280;25303;48.896;13.342;2022-10-22T06:14:49;92752.78;;;11.56;78.76
39613;BME280;25303;48.896;13.342;2022-10-22T06:17:32;92761.34;;;11.48;79.18
39613;BME280;25303;48.896;13.342;2022-10-22T06:20:15;92757.81;;;11.49;79.12
39613;BME280;25303;48.896;13.342;2022-10-22T06:22:58;92756.19;;;11.40;79.31
39613;BME280;25303;48.896;13.342;2022-10-22T06:25:42;92760.38;;;11.41;79.06
39613;BME280;25303;48.896;13.342;2022-10-22T06:28:25;92764.38;;;11.44;79.12
39613;BME280;25303;48.896;13.342;2022-10-22T06:31:08;92768.44;;;11.46;78.97
39613;BME280;25303;48.896;13.342;2022-10-22T06:33:52;92767.28;;;11.49;79.02
39613;BME280;25303;48.896;13.342;2022-10-22T06:36:35;92777.28;;;11.52;79.13
39613;BME280;25303;48.896;13.342;2022-10-22T06:39:18;92783.88;;;11.54;79.00
39613;BME280;25303;48.896;13.342;2022-10-22T06:42:02;92778.56;;;11.56;79.14
39613;BME280;25303;48.896;13.342;2022-10-22T06:44:47;92778.22;;;11.59;78.93
39613;BME280;25303;48.896;13.342;2022-10-22T06:47:30;92789.16;;;11.61;78.95
39613;BME280;25303;48.896;13.342;2022-10-22T06:50:14;92794.19;;;11.63;78.79
39613;BME280;25303;48.896;13.342;2022-10-22T06:52:56;92791.75;;;11.61;78.74
39613;BME280;25303;48.896;13.342;2022-10-22T06:55:39;92794.19;;;11.54;78.80
39613;BME280;25303;48.896;13.342;2022-10-22T06:58:24;92811.75;;;11.51;79.08
39613;BME280;25303;48.896;13.342;2022-10-22T07:01:08;92802.72;;;11.47;79.02
39613;BME280;25303;48.896;13.342;2022-10-22T07:03:52;92809.19;;;11.43;79.13
39613;BME280;25303;48.896;13.342;2022-10-22T07:06:35;92814.53;;;11.33;79.72
39613;BME280;25303;48.896;13.342;2022-10-22T07:09:18;92827.88;;;11.28;79.94
39613;BME280;25303;48.896;13.342;2022-10-22T07:12:01;92826.13;;;11.29;79.87
39613;BME280;25303;48.896;13.342;2022-10-22T07:14:45;92828.69;;;11.29;79.85
39613;BME280;25303;48.896;13.342;2022-10-22T07:17:28;92834.63;;;11.29;80.02
39613;BME280;25303;48.896;13.342;2022-10-22T07:20:11;92838.50;;;11.33;79.82
39613;BME280;25303;48.896;13.342;2022-10-22T07:22:54;92832.38;;;11.34;79.93
39613;BME280;25303;48.896;13.342;2022-10-22T07:25:37;92830.28;;;11.38;80.17
39613;BME280;25303;48.896;13.342;2022-10-22T07:28:20;92834.94;;;11.43;80.01
39613;BME280;25303;48.896;13.342;2022-10-22T07:31:05;92835.13;;;11.49;80.27
39613;BME280;25303;48.896;13.342;2022-10-22T07:33:48;92845.75;;;11.54;80.32
39613;BME280;25303;48.896;13.342;2022-10-22T07:36:31;92849.44;;;11.60;80.30
39613;BME280;25303;48.896;13.342;2022-10-22T07:39:13;92850.72;;;11.64;80.22
39613;BME280;25303;48.896;13.342;2022-10-22T07:41:56;92862.34;;;11.68;80.24
39613;BME280;25303;48.896;13.342;2022-10-22T07:44:39;92858.63;;;11.71;80.21
39613;BME280;25303;48.896;13.342;2022-10-22T07:47:23;92868.63;;;11.74;80.11
39613;BME280;25303;48.896;13.342;2022-10-22T07:50:07;92873.59;;;11.76;80.29
39613;BME280;25303;48.896;13.342;2022-10-22T07:52:50;92868.13;;;11.79;80.56
39613;BME280;25303;48.896;13.342;2022-10-22T07:55:36;92858.31;;;11.82;80.68
39613;BME280;25303;48.896;13.342;2022-10-22T07:58:20;92846.19;;;11.83;80.72
39613;BME280;25303;48.896;13.342;2022-10-22T08:01:04;92860.53;;;11.85;80.94
39613;BME280;25303;48.896;13.342;2022-10-22T08:03:48;92873.28;;;11.87;81.07
39613;BME280;25303;48.896;13.342;2022-10-22T08:06:31;92873.28;;;11.87;81.01
39613;BME280;25303;48.896;13.342;2022-10-22T08:09:14;92885.22;;;11.88;80.98
39613;BME280;25303;48.896;13.342;2022-10-22T08:11:57;92890.19;;;11.90;81.11
39613;BME280;25303;48.896;13.342;2022-10-22T08:14:40;92890.84;;;11.92;81.15
39613;BME280;25303;48.896;13.342;2022-10-22T08:17:23;92900.00;;;11.94;81.11
39613;BME280;25303;48.896;13.342;2022-10-22T08:20:08;92904.06;;;11.97;81.21
39613;BME280;25303;48.896;13.342;2022-10-22T08:22:51;92907.16;;;12.00;81.10
39613;BME280;25303;48.896;13.342;2022-10-22T08:25:34;92897.47;;;12.03;81.23
39613;BME280;25303;48.896;13.342;2022-10-22T08:28:17;92896.31;;;12.05;81.10
39613;BME280;25303;48.896;13.342;2022-10-22T08:31:03;92899.56;;;12.07;81.06
39613;BME280;25303;48.896;13.342;2022-10-22T08:33:46;92880.53;;;12.08;81.21
39613;BME280;25303;48.896;13.342;2022-10-22T08:36:30;92901.00;;;12.10;81.38
39613;BME280;25303;48.896;13.342;2022-10-22T08:39:13;92888.41;;;12.15;81.30
39613;BME280;25303;48.896;13.342;2022-10-22T08:42:03;92889.50;;;12.21;81.48
39613;BME280;25303;48.896;13.342;2022-10-22T08:45:01;92905.50;;;12.24;81.26
39613;BME280;25303;48.896;13.342;2022-10-22T08:48:02;92908.22;;;12.31;81.27
39613;BME280;25303;48.896;13.342;2022-10-22T08:50:51;92904.97;;;12.37;81.22
39613;BME280;25303;48.896;13.342;2022-10-22T08:53:41;92914.63;;;12.43;81.30
39613;BME280;25303;48.896;13.342;2022-10-22T08:56:29;92922.84;;;12.47;80.89
39613;BME280;25303;48.896;13.342;2022-10-22T08:59:18;92924.91;;;12.52;81.08
39613;BME280;25303;48.896;13.342;2022-10-22T09:02:12;92919.44;;;12.55;80.94
39613;BME280;25303;48.896;13.342;2022-10-22T09:05:00;92930.06;;;12.60;81.10
39613;BME280;25303;48.896;13.342;2022-10-22T09:07:50;92946.22;;;12.62;80.80
39613;BME280;25303;48.896;13.342;2022-10-22T09:10:36;92947.00;;;12.63;80.68
39613;BME280;25303;48.896;13.342;2022-10-22T09:13:21;92952.00;;;12.64;80.72
39613;BME280;25303;48.896;13.342;2022-10-22T09:16:14;92959.41;;;12.67;80.86
39613;BME280;25303;48.896;13.342;2022-10-22T09:19:05;92967.00;;;12.69;80.85
39613;BME280;25303;48.896;13.342;2022-10-22T09:21:57;92962.31;;;12.72;80.72
39613;BME280;25303;48.896;13.342;2022-10-22T09:24:44;92964.56;;;12.75;80.68
39613;BME280;25303;48.896;13.342;2022-10-22T09:27:30;92966.00;;;12.78;80.71
39613;BME280;25303;48.896;13.342;2022-10-22T09:30:16;92967.59;;;12.79;80.54
39613;BME280;25303;48.896;13.342;2022-10-22T09:33:01;92965.03;;;12.79;80.42
39613;BME280;25303;48.896;13.342;2022-10-22T09:35:51;92965.03;;;12.79;80.46
39613;BME280;25303;48.896;13.342;2022-10-22T09:38:38;92980.38;;;12.81;80.47
39613;BME280;25303;48.896;13.342;2022-10-22T09:41:24;92984.56;;;12.82;80.48
39613;BME280;25303;48.896;13.342;2022-10-22T09:44:11;92987.44;;;12.87;80.50
39613;BME280;25303;48.896;13.342;2022-10-22T09:46:54;92989.22;;;12.86;80.14
39613;BME280;25303;48.896;13.342;2022-10-22T09:49:37;92981.16;;;12.89;80.29
39613;BME280;25303;48.896;13.342;2022-10-22T09:52:25;92992.75;;;12.94;80.33
39613;BME280;25303;48.896;13.342;2022-10-22T09:55:12;92998.88;;;13.01;80.47
39613;BME280;25303;48.896;13.342;2022-10-22T09:57:58;92988.34;;;13.02;80.10
39613;BME280;25303;48.896;13.342;2022-10-22T10:00:45;92980.44;;;13.04;80.08
39613;BME280;25303;48.896;13.342;2022-10-22T10:03:31;92988.03;;;13.05;80.21
39613;BME280;25303;48.896;13.342;2022-10-22T10:06:17;92982.53;;;13.09;80.10
39613;BME280;25303;48.896;13.342;2022-10-22T10:09:00;92982.00;;;13.13;79.94
39613;BME280;25303;48.896;13.342;2022-10-22T10:11:51;92983.28;;;13.17;79.84
39613;BME280;25303;48.896;13.342;2022-10-22T10:14:40;92986.31;;;13.21;79.71
39613;BME280;25303;48.896;13.342;2022-10-22T10:17:32;92990.38;;;13.24;79.34
39613;BME280;25303;48.896;13.342;2022-10-22T10:20:28;92980.66;;;13.26;79.32
39613;BME280;25303;48.896;13.342;2022-10-22T10:23:20;92982.91;;;13.29;79.34
39613;BME280;25303;48.896;13.342;2022-10-22T10:26:08;92981.59;;;13.33;79.58
39613;BME280;25303;48.896;13.342;2022-10-22T10:29:05;92973.31;;;13.37;79.67
39613;BME280;25303;48.896;13.342;2022-10-22T10:32:05;92968.63;;;13.41;79.38
39613;BME280;25303;48.896;13.342;2022-10-22T10:35:00;92965.72;;;13.44;79.38
39613;BME280;25303;48.896;13.342;2022-10-22T10:37:55;92963.59;;;13.48;79.19
39613;BME280;25303;48.896;13.342;2022-10-22T10:40:44;92959.88;;;13.50;79.01
39613;BME280;25303;48.896;13.342;2022-10-22T10:43:36;92965.03;;;13.50;78.97
39613;BME280;25303;48.896;13.342;2022-10-22T10:46:27;92973.09;;;13.56;78.92
39613;BME280;25303;48.896;13.342;2022-10-22T10:49:19;92974.19;;;13.61;78.94
39613;BME280;25303;48.896;13.342;2022-10-22T10:52:12;92975.44;;;13.65;78.80
39613;BME280;25303;48.896;13.342;2022-10-22T10:55:10;92969.56;;;13.72;78.98
39613;BME280;25303;48.896;13.342;2022-10-22T10:58:05;92972.28;;;13.78;78.88
39613;BME280;25303;48.896;13.342;2022-10-22T11:00:57;92967.56;;;13.82;78.60
39613;BME280;25303;48.896;13.342;2022-10-22T11:03:58;92969.97;;;13.83;78.59
39613;BME280;25303;48.896;13.342;2022-10-22T11:06:48;92969.97;;;13.83;78.33
39613;BME280;25303;48.896;13.342;2022-10-22T11:09:35;92964.81;;;13.83;77.81
39613;BME280;25303;48.896;13.342;2022-10-22T11:12:23;92971.94;;;13.81;78.03
39613;BME280;25303;48.896;13.342;2022-10-22T11:15:13;92973.09;;;13.79;77.80
39613;BME280;25303;48.896;13.342;2022-10-22T11:18:09;92968.91;;;13.78;77.60
39613;BME280;25303;48.896;13.342;2022-10-22T11:21:02;92972.63;;;13.75;77.37
39613;BME280;25303;48.896;13.342;2022-10-22T11:23:50;92967.28;;;13.77;77.36
39613;BME280;25303;48.896;13.342;2022-10-22T11:26:42;92968.91;;;13.78;77.74
39613;BME280;25303;48.896;13.342;2022-10-22T11:29:29;92962.56;;;13.80;77.57
39613;BME280;25303;48.896;13.342;2022-10-22T11:32:16;92959.63;;;13.83;77.30
39613;BME280;25303;48.896;13.342;2022-10-22T11:35:02;92951.19;;;13.90;77.50
39613;BME280;25303;48.896;13.342;2022-10-22T11:37:46;92954.84;;;13.95;77.28
39613;BME280;25303;48.896;13.342;2022-10-22T11:40:33;92955.13;;;14.01;77.34
39613;BME280;25303;48.896;13.342;2022-10-22T11:43:30;92949.25;;;14.07;77.23
39613;BME280;25303;48.896;13.342;2022-10-22T11:46:27;92949.97;;;14.16;77.21
39613;BME280;25303;48.896;13.342;2022-10-22T11:49:25;92943.22;;;14.30;77.58
39613;BME280;25303;48.896;13.342;2022-10-22T11:52:24;92952.69;;;14.52;77.55
39613;BME280;25303;48.896;13.342;2022-10-22T11:55:31;92947.00;;;14.72;77.10
39613;BME280;25303;48.896;13.342;2022-10-22T11:58:31;92957.09;;;14.82;76.14
39613;BME280;25303;48.896;13.342;2022-10-22T12:01:23;92957.09;;;14.82;75.26
39613;BME280;25303;48.896;13.342;2022-10-22T12:04:38;92958.28;;;14.79;74.66
39613;BME280;25303;48.896;13.342;2022-10-22T12:07:32;92954.25;;;14.77;74.52
39613;BME280;25303;48.896;13.342;2022-10-22T12:10:18;92947.09;;;14.79;75.35
39613;BME280;25303;48.896;13.342;2022-10-22T12:13:09;92950.44;;;14.72;74.30
39613;BME280;25303;48.896;13.342;2022-10-22T12:15:57;92955.13;;;14.69;74.37
39613;BME280;25303;48.896;13.342;2022-10-22T12:18:41;92952.88;;;14.66;74.60
39613;BME280;25303;48.896;13.342;2022-10-22T12:21:26;92955.66;;;14.64;74.76
39613;BME280;25303;48.896;13.342;2022-10-22T12:24:12;92954.03;;;14.63;74.52
39613;BME280;25303;48.896;13.342;2022-10-22T12:26:55;92950.66;;;14.63;74.78
39613;BME280;25303;48.896;13.342;2022-10-22T12:29:38;92951.88;;;14.67;75.01
39613;BME280;25303;48.896;13.342;2022-10-22T12:32:33;92949.16;;;14.83;75.68
39613;BME280;25303;48.896;13.342;2022-10-22T12:35:18;92953.41;;;15.06;74.86
39613;BME280;25303;48.896;13.342;2022-10-22T12:38:06;92957.78;;;15.21;74.43
39613;BME280;25303;48.896;13.342;2022-10-22T12:40:53;92958.09;;;15.32;74.03
39613;BME280;25303;48.896;13.342;2022-10-22T12:43:37;92957.13;;;15.33;73.11
39613;BME280;25303;48.896;13.342;2022-10-22T12:46:21;92962.25;;;15.27;72.20
39613;BME280;25303;48.896;13.342;2022-10-22T12:49:10;92956.72;;;15.15;71.97
39613;BME280;25303;48.896;13.342;2022-10-22T12:51:59;92963.16;;;15.04;71.60
39613;BME280;25303;48.896;13.342;2022-10-22T12:54:45;92964.41;;;14.93;71.96
39613;BME280;25303;48.896;13.342;2022-10-22T12:57:29;92961.94;;;14.85;71.92
39613;BME280;25303;48.896;13.342;2022-10-22T13:00:23;92965.44;;;14.77;72.09
39613;BME280;25303;48.896;13.342;2022-10-22T13:03:06;92966.56;;;14.74;72.31
39613;BME280;25303;48.896;13.342;2022-10-22T13:05:50;92966.84;;;14.80;72.61
39613;BME280;25303;48.896;13.342;2022-10-22T13:08:33;92965.50;;;14.84;72.58
39613;BME280;25303;48.896;13.342;2022-10-22T13:11:19;92959.16;;;14.86;72.15
39613;BME280;25303;48.896;13.342;2022-10-22T13:14:03;92963.34;;;14.87;72.18
39613;BME280;25303;48.896;13.342;2022-10-22T13:17:05;92960.97;;;14.86;71.52
39613;BME280;25303;48.896;13.342;2022-10-22T13:19:59;92957.09;;;14.82;71.72
39613;BME280;25303;48.896;13.342;2022-10-22T13:22:55;92965.44;;;14.77;71.70
39613;BME280;25303;48.896;13.342;2022-10-22T13:25:40;92960.78;;;14.72;71.85
39613;BME280;25303;48.896;13.342;2022-10-22T13:28:24;92965.66;;;14.67;72.02
39613;BME280;25303;48.896;13.342;2022-10-22T13:31:13;92963.63;;;14.63;71.74
39613;BME280;25303;48.896;13.342;2022-10-22T13:34:00;92960.13;;;14.55;71.63
39613;BME280;25303;48.896;13.342;2022-10-22T13:36:50;92961.44;;;14.51;71.78
39613;BME280;25303;48.896;13.342;2022-10-22T13:39:35;92974.16;;;14.46;72.11
39613;BME280;25303;48.896;13.342;2022-10-22T13:42:18;92964.13;;;14.43;72.37
39613;BME280;25303;48.896;13.342;2022-10-22T13:45:01;92959.13;;;14.41;72.41
39613;BME280;25303;48.896;13.342;2022-10-22T13:47:48;92970.44;;;14.40;72.52
39613;BME280;25303;48.896;13.342;2022-10-22T13:50:32;92962.09;;;14.38;72.58
39613;BME280;25303;48.896;13.342;2022-10-22T13:53:17;92973.56;;;14.36;72.30
39613;BME280;25303;48.896;13.342;2022-10-22T13:56:02;92976.50;;;14.33;72.67
39613;BME280;25303;48.896;13.342;2022-10-22T13:58:46;92968.75;;;14.33;72.48
39613;BME280;25303;48.896;13.342;2022-10-22T14:01:29;92966.97;;;14.33;72.54
39613;BME280;25303;48.896;13.342;2022-10-22T14:04:12;92960.81;;;14.34;72.63
39613;BME280;25303;48.896;13.342;2022-10-22T14:06:56;92962.25;;;14.37;72.77
39613;BME280;25303;48.896;13.342;2022-10-22T14:09:44;92964.66;;;14.38;72.69
39613;BME280;25303;48.896;13.342;2022-10-22T14:12:28;92957.25;;;14.35;73.04
39613;BME280;25303;48.896;13.342;2022-10-22T14:15:14;92964.97;;;14.20;72.75
39613;BME280;25303;48.896;13.342;2022-10-22T14:17:57;92972.13;;;14.18;73.23
39613;BME280;25303;48.896;13.342;2022-10-22T14:20:41;92973.28;;;14.16;73.06
39613;BME280;25303;48.896;13.342;2022-10-22T14:23:25;92971.47;;;14.16;73.28
39613;BME280;25303;48.896;13.342;2022-10-22T14:26:10;92974.59;;;14.11;73.71
39613;BME280;25303;48.896;13.342;2022-10-22T14:28:57;92982.22;;;14.13;73.29